Time;durP1;ratioP1;P1;durP2;ratioP2;P2;SDS_P1;SDS_P2;PMS_P1;PMS_P2;Temp;Humidity;BMP_temperature;BMP_pressure;BME280_temperature;BME280_humidity;BME280_pressure;Samples;Min_cycle;Max_cycle;Signal;HPM_P1;HPM_P2
2020/12/16 00:01:32;;;;;;;14.93;12.50;;;;;;;6.96;100.00;98168.59;4975154;28;20268;-65
2020/12/16 00:03:58;;;;;;;14.87;12.17;;;;;;;6.96;100.00;98168.59;4975186;28;20275;-65
2020/12/16 00:06:24;;;;;;;15.83;12.13;;;;;;;6.93;100.00;98174.03;4973147;28;20217;-65
2020/12/16 00:08:50;;;;;;;14.30;11.57;;;;;;;6.96;100.00;98173.00;4974960;28;20213;-65
2020/12/16 00:11:17;;;;;;;16.13;11.73;;;;;;;6.99;100.00;98163.19;4975070;28;20284;-65
2020/12/16 00:13:43;;;;;;;13.87;10.80;;;;;;;6.99;100.00;98163.19;4975084;28;20223;-64
2020/12/16 00:16:09;;;;;;;13.50;10.30;;;;;;;6.98;100.00;98164.13;4974859;28;20221;-65
2020/12/16 00:18:35;;;;;;;13.00;10.00;;;;;;;6.89;100.00;98154.09;4974926;28;20743;-64
2020/12/16 00:21:01;;;;;;;10.70;9.60;;;;;;;6.84;100.00;98165.78;4974549;28;20248;-65
2020/12/16 00:23:27;;;;;;;12.23;9.93;;;;;;;6.77;100.00;98157.38;4974617;28;20706;-65
2020/12/16 00:25:53;;;;;;;12.27;10.23;;;;;;;6.70;100.00;98152.53;4975062;28;20212;-65
2020/12/16 00:28:19;;;;;;;11.80;10.50;;;;;;;6.60;100.00;98152.16;4974616;28;20233;-65
2020/12/16 00:30:47;;;;;;;9.97;8.97;;;;;;;6.50;100.00;98158.00;4974792;28;20248;-65
2020/12/16 00:33:13;;;;;;;10.40;9.07;;;;;;;6.40;100.00;98157.63;4973028;28;20225;-68
2020/12/16 00:35:39;;;;;;;9.93;8.80;;;;;;;6.33;100.00;98151.00;4974337;28;20703;-67
2020/12/16 00:38:05;;;;;;;12.47;9.77;;;;;;;6.30;100.00;98156.41;4974684;28;20228;-67
2020/12/16 00:40:31;;;;;;;11.83;9.87;;;;;;;6.26;100.00;98154.88;4974239;28;20745;-67
2020/12/16 00:42:57;;;;;;;11.23;8.67;;;;;;;6.25;100.00;98157.56;4974354;28;20218;-67
2020/12/16 00:45:24;;;;;;;11.30;8.33;;;;;;;6.24;100.00;98156.72;4974582;28;20663;-68
2020/12/16 00:47:50;;;;;;;10.30;9.23;;;;;;;6.22;100.00;98161.19;4974548;28;20210;-68
2020/12/16 00:50:16;;;;;;;12.13;9.23;;;;;;;6.19;100.00;98164.00;4974682;28;20217;-66
2020/12/16 00:52:42;;;;;;;10.57;9.10;;;;;;;6.15;100.00;98157.19;4974531;28;20267;-66
2020/12/16 00:55:08;;;;;;;10.33;9.23;;;;;;;6.17;100.00;98165.00;4974154;28;20217;-66
2020/12/16 00:57:34;;;;;;;10.93;9.03;;;;;;;6.09;100.00;98175.88;4974366;28;20222;-66
2020/12/16 01:00:01;;;;;;;11.80;9.93;;;;;;;6.06;100.00;98173.44;4972826;28;20576;-67
2020/12/16 01:02:28;;;;;;;12.07;10.50;;;;;;;6.02;100.00;98171.00;4974303;28;20237;-66
2020/12/16 01:04:54;;;;;;;14.47;11.00;;;;;;;5.93;100.00;98172.31;4974346;28;20282;-66
2020/12/16 01:07:20;;;;;;;11.73;10.30;;;;;;;5.96;100.00;98182.66;4974468;28;20223;-66
2020/12/16 01:09:46;;;;;;;14.93;11.90;;;;;;;6.04;100.00;98185.75;4974756;28;20212;-66
2020/12/16 01:12:12;;;;;;;13.57;11.47;;;;;;;5.98;100.00;98182.59;4974677;28;20669;-66
2020/12/16 01:14:38;;;;;;;13.73;11.27;;;;;;;5.92;100.00;98188.16;4974244;28;20256;-66
2020/12/16 01:17:04;;;;;;;14.87;11.63;;;;;;;5.93;100.00;98193.31;4974610;28;20257;-66
2020/12/16 01:19:31;;;;;;;15.70;12.10;;;;;;;5.99;100.00;98193.00;4974237;28;20213;-67
2020/12/16 01:21:58;;;;;;;19.67;15.63;;;;;;;6.16;100.00;98197.41;4973813;28;20243;-67
2020/12/16 01:24:26;;;;;;;22.70;17.03;;;;;;;6.31;100.00;98200.13;4972338;28;20239;-67
2020/12/16 01:26:54;;;;;;;24.17;16.90;;;;;;;6.47;100.00;98208.88;4974417;28;20631;-66
2020/12/16 01:29:21;;;;;;;21.60;17.13;;;;;;;6.62;100.00;98204.63;4974102;28;20216;-67
2020/12/16 01:31:48;;;;;;;20.97;15.70;;;;;;;6.74;100.00;98210.09;4974095;28;20224;-66
2020/12/16 01:34:19;;;;;;;20.73;15.73;;;;;;;6.80;100.00;98214.16;4974169;28;20240;-67
2020/12/16 01:36:48;;;;;;;20.40;15.33;;;;;;;6.89;100.00;98211.06;4974179;28;20217;-66
2020/12/16 01:39:16;;;;;;;18.97;15.30;;;;;;;6.93;100.00;98218.69;4973945;28;20227;-66
2020/12/16 01:41:42;;;;;;;19.50;15.80;;;;;;;7.04;100.00;98212.84;4973915;28;20240;-68
2020/12/16 01:44:13;;;;;;;23.80;16.40;;;;;;;7.03;100.00;98206.72;4974051;28;20223;-66
2020/12/16 01:46:45;;;;;;;22.00;15.47;;;;;;;7.08;100.00;98209.97;4974257;28;20228;-67
2020/12/16 01:49:11;;;;;;;17.63;14.70;;;;;;;7.11;100.00;98208.94;4973997;28;20217;-67
2020/12/16 01:51:38;;;;;;;19.40;15.60;;;;;;;7.12;100.00;98202.75;4972084;28;20307;-67
2020/12/16 01:54:07;;;;;;;18.03;14.70;;;;;;;7.15;100.00;98205.25;4973974;28;20237;-67
2020/12/16 01:56:37;;;;;;;23.77;14.97;;;;;;;7.16;100.00;98206.94;4976800;28;20679;-67
2020/12/16 01:59:05;;;;;;;19.77;15.23;;;;;;;7.22;100.00;98206.59;4977547;28;20223;-67
2020/12/16 02:01:35;;;;;;;20.83;15.63;;;;;;;7.28;100.00;98210.56;4977075;28;20239;-67
2020/12/16 02:04:02;;;;;;;20.50;16.30;;;;;;;7.33;100.00;98199.81;4977527;28;20226;-68
2020/12/16 02:06:33;;;;;;;19.30;14.03;;;;;;;7.35;100.00;98204.03;4977469;28;20218;-68
2020/12/16 02:09:03;;;;;;;18.17;13.87;;;;;;;7.38;100.00;98192.50;4977453;28;20217;-68
2020/12/16 02:11:30;;;;;;;18.93;14.97;;;;;;;7.35;100.00;98192.69;4977414;28;20640;-68
2020/12/16 02:13:56;;;;;;;18.50;13.83;;;;;;;7.33;100.00;98197.16;4977327;28;20220;-68
2020/12/16 02:16:22;;;;;;;18.57;14.37;;;;;;;7.34;100.00;98201.53;4975314;28;20304;-68
2020/12/16 02:18:51;;;;;;;18.77;15.27;;;;;;;7.36;100.00;98197.03;4977025;28;20219;-67
2020/12/16 02:21:17;;;;;;;18.50;14.20;;;;;;;7.38;100.00;98203.03;4977103;28;20233;-67
2020/12/16 02:23:46;;;;;;;17.50;13.20;;;;;;;7.33;100.00;98197.16;4977130;28;20276;-67
2020/12/16 02:26:14;;;;;;;20.10;13.70;;;;;;;7.31;100.00;98199.03;4976851;28;20219;-68
2020/12/16 02:28:40;;;;;;;21.07;14.23;;;;;;;7.30;100.00;98194.72;4976686;28;20677;-68
2020/12/16 02:31:06;;;;;;;18.40;14.03;;;;;;;7.26;100.00;98197.63;4976996;28;20546;-67
2020/12/16 02:33:32;;;;;;;18.73;13.60;;;;;;;7.16;100.00;98181.50;4976703;28;20259;-68
2020/12/16 02:35:58;;;;;;;18.87;14.00;;;;;;;7.17;100.00;98195.47;4976683;28;20683;-67
2020/12/16 02:38:26;;;;;;;19.50;14.17;;;;;;;7.15;100.00;98197.34;4976514;28;20248;-68
2020/12/16 02:40:52;;;;;;;17.10;13.87;;;;;;;7.07;100.00;98197.75;4976857;28;20209;-68
2020/12/16 02:43:18;;;;;;;16.97;14.27;;;;;;;7.07;100.00;98197.75;4974815;28;20312;-68
2020/12/16 02:45:44;;;;;;;16.43;12.67;;;;;;;7.07;100.00;98196.91;4976481;28;20698;-68
2020/12/16 02:48:13;;;;;;;21.83;14.67;;;;;;;7.13;100.00;98202.69;4976786;28;20220;-68
2020/12/16 02:50:40;;;;;;;16.67;13.37;;;;;;;7.21;100.00;98216.25;4976450;28;20682;-68
2020/12/16 02:53:06;;;;;;;20.47;16.30;;;;;;;7.26;100.00;98202.88;4976498;28;20598;-68
2020/12/16 02:55:32;;;;;;;20.03;14.77;;;;;;;7.34;100.00;98209.41;4976667;28;20576;-68
2020/12/16 02:57:58;;;;;;;21.70;15.63;;;;;;;7.40;100.00;98201.16;4976082;28;20668;-67
2020/12/16 03:00:24;;;;;;;18.10;14.30;;;;;;;7.44;100.00;98205.31;4976509;28;20266;-68
2020/12/16 03:02:50;;;;;;;19.00;15.00;;;;;;;7.45;100.00;98209.66;4976015;28;20241;-67
2020/12/16 03:05:16;;;;;;;17.87;14.10;;;;;;;7.45;100.00;98200.00;4976038;28;20223;-68
2020/12/16 03:07:42;;;;;;;18.60;14.00;;;;;;;7.48;100.00;98193.72;4975893;28;20214;-68
2020/12/16 03:10:08;;;;;;;18.27;13.90;;;;;;;7.48;100.00;98202.44;4974910;28;20216;-67
2020/12/16 03:12:34;;;;;;;18.63;13.63;;;;;;;7.48;100.00;98193.72;4976256;28;20265;-68
2020/12/16 03:15:00;;;;;;;19.37;14.17;;;;;;;7.51;100.00;98198.78;4976011;28;20224;-68
2020/12/16 03:17:27;;;;;;;17.17;13.97;;;;;;;7.48;100.00;98194.53;4975928;28;20735;-68
2020/12/16 03:19:53;;;;;;;19.60;14.43;;;;;;;7.50;100.00;98191.84;4975985;28;20210;-68
2020/12/16 03:22:19;;;;;;;15.83;13.07;;;;;;;7.47;100.00;98197.28;4976006;28;20274;-67
2020/12/16 03:24:45;;;;;;;17.93;13.93;;;;;;;7.46;100.00;98198.19;4975647;28;20214;-67
2020/12/16 03:27:11;;;;;;;18.30;13.97;;;;;;;7.45;100.00;98193.88;4975970;28;20218;-68
2020/12/16 03:29:37;;;;;;;17.23;13.70;;;;;;;7.46;100.00;98201.69;4975870;28;20309;-68
2020/12/16 03:32:03;;;;;;;18.43;13.63;;;;;;;7.41;100.00;98205.50;4975814;28;20227;-67
2020/12/16 03:34:29;;;;;;;19.90;15.07;;;;;;;7.38;100.00;98203.03;4974140;28;20262;-68
2020/12/16 03:36:55;;;;;;;18.80;14.50;;;;;;;7.37;100.00;98203.97;4976044;28;20221;-68
2020/12/16 03:39:21;;;;;;;18.23;14.43;;;;;;;7.34;100.00;98206.78;4975800;28;20308;-67
2020/12/16 03:41:50;;;;;;;17.27;13.63;;;;;;;7.30;100.00;98205.25;4975377;28;20299;-67
2020/12/16 03:44:16;;;;;;;17.47;13.40;;;;;;;7.23;100.00;98209.97;4975448;28;20225;-68
2020/12/16 03:46:42;;;;;;;20.73;15.80;;;;;;;7.21;100.00;98204.91;4975666;28;20299;-67
2020/12/16 03:49:08;;;;;;;19.70;14.77;;;;;;;7.25;100.00;98212.53;4975616;28;20252;-68
2020/12/16 03:51:35;;;;;;;20.53;14.40;;;;;;;7.23;100.00;98203.88;4975279;28;20211;-68
2020/12/16 03:54:01;;;;;;;18.10;14.17;;;;;;;7.21;100.00;98203.09;4975210;28;20224;-68
2020/12/16 03:56:27;;;;;;;18.10;14.83;;;;;;;7.23;100.00;98214.41;4975465;28;20214;-68
2020/12/16 03:58:53;;;;;;;18.47;14.87;;;;;;;7.24;100.00;98221.34;4975414;28;20220;-68
2020/12/16 04:01:20;;;;;;;18.67;15.00;;;;;;;7.25;100.00;98215.16;4973376;28;20717;-68
2020/12/16 04:03:46;;;;;;;18.60;14.30;;;;;;;7.24;100.00;98210.84;4975140;28;20251;-68
2020/12/16 04:06:13;;;;;;;18.60;14.13;;;;;;;7.26;100.00;98214.22;4974888;28;20225;-68
2020/12/16 04:08:41;;;;;;;19.90;14.67;;;;;;;7.26;100.00;98210.75;4974820;28;20671;-68
2020/12/16 04:11:11;;;;;;;19.03;14.63;;;;;;;7.22;100.00;98207.47;4975140;28;20223;-68
2020/12/16 04:13:37;;;;;;;17.80;14.23;;;;;;;7.18;100.00;98210.31;4974822;28;20682;-68
2020/12/16 04:16:03;;;;;;;19.20;13.33;;;;;;;7.10;100.00;98213.38;4975021;28;20222;-68
2020/12/16 04:18:29;;;;;;;16.57;12.77;;;;;;;7.10;100.00;98210.75;4974553;28;20210;-68
2020/12/16 04:20:55;;;;;;;17.03;12.90;;;;;;;7.01;100.00;98208.59;4974760;28;20214;-68
2020/12/16 04:23:21;;;;;;;18.13;12.43;;;;;;;6.97;100.00;98201.81;4974574;28;20236;-68
2020/12/16 04:25:48;;;;;;;16.53;12.93;;;;;;;6.88;100.00;98201.44;4974143;28;20304;-68
2020/12/16 04:28:14;;;;;;;14.97;11.30;;;;;;;6.80;100.00;98199.25;4973637;28;20588;-68
2020/12/16 04:30:40;;;;;;;14.93;12.27;;;;;;;6.75;100.00;98196.00;4974808;28;20217;-68
2020/12/16 04:33:06;;;;;;;14.77;11.83;;;;;;;6.73;100.00;98197.84;4974671;28;20618;-67
2020/12/16 04:35:32;;;;;;;15.30;11.90;;;;;;;6.62;100.00;98205.47;4974895;28;20328;-68
2020/12/16 04:37:58;;;;;;;16.83;11.87;;;;;;;6.54;100.00;98207.63;4974759;28;20213;-68
2020/12/16 04:40:24;;;;;;;16.07;11.77;;;;;;;6.49;100.00;98212.28;4974791;28;20300;-68
2020/12/16 04:43:02;;;;;;;15.53;12.87;;;;;;;6.42;100.00;98212.69;4974303;28;20729;-68
2020/12/16 04:45:28;;;;;;;17.47;12.90;;;;;;;6.37;100.00;98209.44;4974670;28;20207;-68
2020/12/16 04:47:55;;;;;;;18.93;13.00;;;;;;;6.37;100.00;98223.41;4974592;28;20231;-68
2020/12/16 04:50:21;;;;;;;14.57;11.43;;;;;;;6.34;100.00;98222.72;4974183;28;20227;-68
2020/12/16 04:52:49;;;;;;;16.23;12.47;;;;;;;6.27;100.00;98234.44;4972721;28;20312;-68
2020/12/16 04:55:15;;;;;;;18.40;14.03;;;;;;;6.27;100.00;98230.06;4974353;28;20213;-68
2020/12/16 04:57:42;;;;;;;17.43;13.70;;;;;;;6.33;100.00;98231.50;4974164;28;20217;-68
2020/12/16 05:00:09;;;;;;;15.90;12.93;;;;;;;6.33;100.00;98231.50;4974417;28;20586;-68
2020/12/16 05:02:35;;;;;;;18.23;13.37;;;;;;;6.28;100.00;98231.75;4974345;28;20248;-68
2020/12/16 05:05:02;;;;;;;17.07;13.00;;;;;;;6.30;100.00;98229.88;4974167;28;20212;-68
2020/12/16 05:07:28;;;;;;;19.23;15.00;;;;;;;6.31;100.00;98236.00;4974080;28;20221;-68
2020/12/16 05:09:55;;;;;;;19.50;14.27;;;;;;;6.34;100.00;98233.22;4974283;28;20630;-68
2020/12/16 05:12:21;;;;;;;18.13;13.67;;;;;;;6.33;100.00;98235.00;4974030;28;20208;-68
2020/12/16 05:14:47;;;;;;;19.43;14.63;;;;;;;6.37;100.00;98233.94;4974286;28;20217;-68
2020/12/16 05:17:14;;;;;;;18.97;14.20;;;;;;;6.35;100.00;98235.75;4973991;28;20220;-68
2020/12/16 05:19:41;;;;;;;17.67;13.73;;;;;;;6.35;100.00;98237.56;4972497;28;20216;-68
2020/12/16 05:22:17;;;;;;;20.53;14.83;;;;;;;6.27;100.00;98230.06;4974174;28;20236;-68
2020/12/16 05:24:45;;;;;;;15.50;12.90;;;;;;;6.25;100.00;98236.31;4973915;28;20679;-68
2020/12/16 05:27:16;;;;;;;15.13;11.97;;;;;;;6.22;100.00;98237.31;4973864;28;20697;-68
2020/12/16 05:29:42;;;;;;;16.43;12.80;;;;;;;6.30;100.00;98243.00;4974350;28;20275;-68
2020/12/16 05:32:16;;;;;;;16.87;13.50;;;;;;;6.34;100.00;98241.94;4978169;28;20674;-68
2020/12/16 05:34:42;;;;;;;18.43;13.17;;;;;;;6.38;100.00;98233.00;4977586;28;20305;-68
2020/12/16 05:37:33;;;;;;;16.13;12.60;;;;;;;6.42;100.00;98238.94;4978107;28;20208;-68
2020/12/16 05:40:10;;;;;;;14.87;12.07;;;;;;;6.42;100.00;98245.00;4977579;28;20297;-68
2020/12/16 05:42:36;;;;;;;14.97;11.80;;;;;;;6.46;100.00;98251.81;4977829;28;20590;-69
2020/12/16 05:45:11;;;;;;;14.23;11.73;;;;;;;6.43;100.00;98251.13;4976256;28;20222;-68
2020/12/16 05:47:40;;;;;;;16.97;13.07;;;;;;;6.51;100.00;98259.44;4977661;28;20224;-69
2020/12/16 05:50:15;;;;;;;15.53;12.23;;;;;;;6.52;100.00;98259.38;4977569;28;20252;-69
2020/12/16 05:52:41;;;;;;;15.10;11.93;;;;;;;6.53;100.00;98266.31;4977753;28;20596;-68
2020/12/16 05:55:07;;;;;;;12.70;10.60;;;;;;;6.53;100.00;98268.13;4977441;28;20210;-69
2020/12/16 05:57:33;;;;;;;12.53;10.33;;;;;;;6.49;100.00;98261.31;4977689;28;20636;-69
2020/12/16 06:00:03;;;;;;;12.20;10.80;;;;;;;6.46;100.00;98266.72;4977572;28;20212;-69
2020/12/16 06:02:34;;;;;;;11.40;9.30;;;;;;;6.39;100.00;98268.81;4977378;28;20622;-69
2020/12/16 06:05:02;;;;;;;11.83;9.60;;;;;;;6.30;100.00;98271.03;4977512;28;20220;-68
2020/12/16 06:07:31;;;;;;;10.97;9.57;;;;;;;6.25;100.00;98273.91;4977424;28;20208;-68
2020/12/16 06:09:58;;;;;;;12.40;9.50;;;;;;;6.24;100.00;98289.72;4975996;28;20243;-68
2020/12/16 06:12:28;;;;;;;12.53;9.60;;;;;;;6.25;100.00;98287.03;4977076;28;20220;-69
2020/12/16 06:15:05;;;;;;;12.23;9.87;;;;;;;6.23;100.00;98286.22;4977135;28;20217;-68
2020/12/16 06:17:37;;;;;;;12.57;9.73;;;;;;;6.24;100.00;98287.94;4977053;28;20224;-69
2020/12/16 06:20:06;;;;;;;11.43;9.60;;;;;;;6.26;100.00;98283.47;4977157;28;20217;-68
2020/12/16 06:22:33;;;;;;;11.90;9.43;;;;;;;6.26;100.00;98291.34;4977012;28;20251;-68
2020/12/16 06:25:04;;;;;;;12.27;9.60;;;;;;;6.27;100.00;98300.91;4977228;28;20213;-68
2020/12/16 06:27:36;;;;;;;11.60;9.80;;;;;;;6.26;100.00;98301.84;4977061;28;20573;-68
2020/12/16 06:30:03;;;;;;;12.33;9.67;;;;;;;6.25;100.00;98297.53;4976841;28;20221;-68
2020/12/16 06:32:37;;;;;;;11.53;9.23;;;;;;;6.25;100.00;98300.16;4976770;28;20288;-68
2020/12/16 06:35:05;;;;;;;11.47;9.57;;;;;;;6.29;100.00;98291.19;4976749;28;20243;-68
2020/12/16 06:37:31;;;;;;;11.60;9.93;;;;;;;6.31;100.00;98291.13;4975340;28;20596;-68
2020/12/16 06:39:57;;;;;;;11.97;9.17;;;;;;;6.33;100.00;98292.75;4976740;28;20220;-69
2020/12/16 06:42:32;;;;;;;12.87;10.67;;;;;;;6.36;100.00;98300.44;4976036;28;20246;-68
2020/12/16 06:45:12;;;;;;;14.43;10.73;;;;;;;6.38;100.00;98311.75;4976854;28;20221;-68
2020/12/16 06:47:38;;;;;;;13.47;10.23;;;;;;;6.42;100.00;98317.69;4976326;28;20215;-68
2020/12/16 06:50:19;;;;;;;12.10;9.90;;;;;;;6.40;100.00;98315.13;4976379;28;20223;-68
2020/12/16 06:52:45;;;;;;;12.13;9.40;;;;;;;6.37;100.00;98320.53;4976540;28;20291;-67
2020/12/16 06:55:11;;;;;;;11.93;9.57;;;;;;;6.38;100.00;98319.63;4976205;28;20220;-67
2020/12/16 06:57:48;;;;;;;13.73;10.20;;;;;;;6.37;100.00;98312.66;4976503;28;20308;-67
2020/12/16 07:00:18;;;;;;;11.37;9.83;;;;;;;6.33;100.00;98311.13;4976439;28;20223;-68
2020/12/16 07:02:44;;;;;;;12.50;9.60;;;;;;;6.31;100.00;98307.72;4974416;28;20761;-68
2020/12/16 07:05:37;;;;;;;13.53;9.60;;;;;;;6.22;100.00;98310.78;4976392;28;20217;-68
2020/12/16 07:08:04;;;;;;;12.63;9.93;;;;;;;6.23;100.00;98306.41;4976449;28;20216;-68
2020/12/16 07:10:54;;;;;;;12.37;9.33;;;;;;;6.24;100.00;98306.31;4975955;28;20219;-68
2020/12/16 07:13:28;;;;;;;12.13;9.47;;;;;;;6.29;100.00;98311.34;4976327;28;20220;-68
2020/12/16 07:15:57;;;;;;;12.13;9.63;;;;;;;6.28;100.00;98314.91;4975974;28;20212;-68
2020/12/16 07:18:26;;;;;;;12.23;9.57;;;;;;;6.30;100.00;98319.13;4975831;28;20219;-68
2020/12/16 07:21:16;;;;;;;12.13;9.87;;;;;;;6.31;100.00;98326.09;4976076;28;20265;-68
2020/12/16 07:23:47;;;;;;;11.37;9.63;;;;;;;6.34;100.00;98325.09;4975773;28;20357;-69
2020/12/16 07:26:18;;;;;;;11.13;9.00;;;;;;;6.34;100.00;98322.47;4976006;28;20211;-68
2020/12/16 07:28:44;;;;;;;12.20;9.03;;;;;;;6.39;100.00;98329.19;4974254;28;20215;-68
2020/12/16 07:31:10;;;;;;;10.37;8.77;;;;;;;6.41;100.00;98332.56;4975914;28;20247;-69
2020/12/16 07:33:37;;;;;;;11.73;8.67;;;;;;;6.37;100.00;98335.44;4975702;28;20246;-69
2020/12/16 07:36:05;;;;;;;10.83;8.60;;;;;;;6.31;100.00;98341.84;4975440;28;20213;-69
2020/12/16 07:38:31;;;;;;;11.57;8.80;;;;;;;6.32;100.00;98332.19;4975422;28;20217;-69
2020/12/16 07:40:57;;;;;;;11.37;8.57;;;;;;;6.30;100.00;98334.88;4975488;28;20218;-69
2020/12/16 07:43:24;;;;;;;11.20;8.20;;;;;;;6.29;100.00;98332.34;4975355;28;20248;-69
2020/12/16 07:46:04;;;;;;;10.43;8.37;;;;;;;6.32;100.00;98333.03;4975656;28;20218;-69
2020/12/16 07:48:30;;;;;;;12.03;9.07;;;;;;;6.32;100.00;98343.53;4975354;28;20306;-69
2020/12/16 07:51:05;;;;;;;10.57;8.63;;;;;;;6.38;100.00;98343.25;4975296;28;20219;-69
2020/12/16 07:53:32;;;;;;;9.70;8.07;;;;;;;6.40;100.00;98349.25;4974402;28;20211;-69
2020/12/16 07:56:00;;;;;;;9.87;7.93;;;;;;;6.40;100.00;98333.50;4973505;28;20209;-69
2020/12/16 07:58:26;;;;;;;9.90;8.03;;;;;;;6.41;100.00;98337.00;4975218;28;20680;-69
2020/12/16 08:00:52;;;;;;;9.43;8.13;;;;;;;6.42;100.00;98355.28;4975408;28;20583;-69
2020/12/16 08:03:19;;;;;;;9.73;8.47;;;;;;;6.42;100.00;98362.31;4975259;28;20267;-69
2020/12/16 08:05:57;;;;;;;9.93;7.80;;;;;;;6.45;100.00;98370.88;4975340;28;20217;-69
2020/12/16 08:08:24;;;;;;;10.13;7.97;;;;;;;6.38;100.00;98369.50;4975005;28;20243;-69
2020/12/16 08:10:50;;;;;;;9.97;7.70;;;;;;;6.39;100.00;98370.31;4975278;28;20219;-70
2020/12/16 08:13:21;;;;;;;9.60;8.40;;;;;;;6.39;100.00;98360.69;4975176;28;20642;-68
2020/12/16 08:15:47;;;;;;;8.97;7.57;;;;;;;6.42;100.00;98371.03;4974877;28;20216;-70
2020/12/16 08:18:15;;;;;;;10.07;7.87;;;;;;;6.38;100.00;98363.38;4975192;28;20216;-68
2020/12/16 08:20:42;;;;;;;9.03;7.50;;;;;;;6.40;100.00;98370.25;4973444;28;20211;-69
2020/12/16 08:23:12;;;;;;;9.23;8.20;;;;;;;6.49;100.00;98367.19;4974963;28;20284;-69
2020/12/16 08:25:39;;;;;;;10.17;7.33;;;;;;;6.59;100.00;98363.16;4975031;28;20215;-68
2020/12/16 08:28:05;;;;;;;9.63;7.43;;;;;;;6.60;100.00;98362.25;4974929;28;20264;-70
2020/12/16 08:30:32;;;;;;;8.33;7.37;;;;;;;6.60;100.00;98364.03;4975145;28;20212;-69
2020/12/16 08:33:01;;;;;;;8.70;7.23;;;;;;;6.56;100.00;98363.34;4975090;28;20207;-70
2020/12/16 08:35:30;;;;;;;8.37;7.37;;;;;;;6.60;100.00;98374.53;4974993;28;20580;-70
2020/12/16 08:38:01;;;;;;;8.87;7.60;;;;;;;6.65;100.00;98362.88;4974655;28;20215;-67
2020/12/16 08:40:29;;;;;;;9.13;7.53;;;;;;;6.76;100.00;98364.94;4974776;28;20214;-68
2020/12/16 08:43:15;;;;;;;10.70;7.97;;;;;;;6.83;100.00;98354.06;4974669;28;20600;-69
2020/12/16 08:45:41;;;;;;;11.80;7.87;;;;;;;6.86;100.00;98356.56;4974701;28;20216;-68
2020/12/16 08:48:07;;;;;;;10.40;8.17;;;;;;;6.89;100.00;98356.38;4973377;28;20216;-69
2020/12/16 08:50:33;;;;;;;10.13;8.17;;;;;;;6.94;100.00;98354.38;4974569;28;20698;-69
2020/12/16 08:53:00;;;;;;;11.00;8.50;;;;;;;7.04;100.00;98354.75;4974205;28;20256;-69
2020/12/16 08:55:26;;;;;;;9.27;7.87;;;;;;;7.11;100.00;98351.72;4974587;28;20216;-69
2020/12/16 08:57:54;;;;;;;9.13;8.03;;;;;;;7.10;100.00;98355.28;4974226;28;20700;-69
2020/12/16 09:00:27;;;;;;;9.63;7.40;;;;;;;7.04;100.00;98355.59;4974457;28;20217;-69
2020/12/16 09:03:08;;;;;;;9.53;8.53;;;;;;;6.98;100.00;98355.06;4974373;28;20604;-69
2020/12/16 09:05:36;;;;;;;9.47;8.23;;;;;;;6.92;100.00;98364.13;4974182;28;20222;-69
2020/12/16 09:08:13;;;;;;;10.87;8.50;;;;;;;6.82;100.00;98370.75;4974489;28;20209;-68
2020/12/16 09:10:40;;;;;;;10.37;8.47;;;;;;;6.79;100.00;98381.41;4974534;28;20219;-69
2020/12/16 09:13:12;;;;;;;10.43;7.97;;;;;;;6.81;100.00;98379.56;4972188;28;20227;-69
2020/12/16 09:15:39;;;;;;;12.43;9.30;;;;;;;6.87;100.00;98378.41;4971019;28;20236;-67
2020/12/16 09:18:05;;;;;;;11.37;8.63;;;;;;;6.93;100.00;98368.44;4972483;28;20230;-67
2020/12/16 09:20:32;;;;;;;11.87;9.50;;;;;;;7.05;100.00;98374.84;4972736;28;20594;-66
2020/12/16 09:22:58;;;;;;;10.53;8.90;;;;;;;7.16;100.00;98376.00;4971365;28;20236;-67
2020/12/16 09:25:25;;;;;;;11.70;8.77;;;;;;;7.21;100.00;98373.97;4970251;28;20217;-67
2020/12/16 09:27:53;;;;;;;9.07;7.93;;;;;;;7.23;100.00;98372.13;4972580;28;20208;-67
2020/12/16 09:30:30;;;;;;;9.73;7.97;;;;;;;7.22;100.00;98375.69;4971714;28;20238;-68
2020/12/16 09:32:57;;;;;;;12.30;8.93;;;;;;;7.25;100.00;98380.78;4972191;28;20239;-68
2020/12/16 09:35:24;;;;;;;11.37;8.80;;;;;;;7.27;100.00;98378.91;4971866;28;20252;-68
2020/12/16 09:37:50;;;;;;;10.63;8.73;;;;;;;7.24;100.00;98374.66;4971479;28;20216;-67
2020/12/16 09:40:17;;;;;;;10.17;8.13;;;;;;;7.26;100.00;98371.94;4970963;28;20217;-69
2020/12/16 09:42:56;;;;;;;9.20;7.70;;;;;;;7.17;100.00;98371.56;4972513;28;20241;-69
2020/12/16 09:45:23;;;;;;;9.30;7.43;;;;;;;7.19;100.00;98375.81;4971226;28;20746;-69
2020/12/16 09:47:50;;;;;;;9.43;7.83;;;;;;;7.21;100.00;98368.69;4972340;28;20267;-68
2020/12/16 09:50:25;;;;;;;8.60;7.50;;;;;;;7.34;100.00;98375.88;4972407;28;20264;-67
2020/12/16 09:52:56;;;;;;;9.60;7.37;;;;;;;7.46;100.00;98374.38;4971512;28;20221;-68
2020/12/16 09:55:22;;;;;;;9.33;7.87;;;;;;;7.65;100.00;98375.13;4972069;28;20222;-68
2020/12/16 09:57:57;;;;;;;8.93;7.43;;;;;;;7.82;100.00;98370.63;4973000;28;20221;-69
2020/12/16 10:00:23;;;;;;;8.50;7.03;;;;;;;7.97;100.00;98371.56;4973830;28;20244;-69
2020/12/16 10:02:55;;;;;;;8.47;6.93;;;;;;;7.97;100.00;98366.31;4973943;28;20242;-68
2020/12/16 10:05:22;;;;;;;8.23;6.97;;;;;;;7.99;100.00;98369.69;4971964;28;20219;-69
2020/12/16 10:07:48;;;;;;;9.87;7.27;;;;;;;8.08;100.00;98363.94;4973870;28;20219;-69
2020/12/16 10:10:14;;;;;;;8.47;7.10;;;;;;;8.07;100.00;98367.47;4973781;28;20712;-69
2020/12/16 10:12:40;;;;;;;7.90;7.13;;;;;;;8.15;100.00;98368.75;4973864;28;20211;-69
2020/12/16 10:15:06;;;;;;;7.87;6.43;;;;;;;8.15;100.00;98373.19;4973559;28;20214;-69
2020/12/16 10:17:32;;;;;;;10.87;7.27;;;;;;;8.13;100.00;98367.13;4976855;28;20221;-69
2020/12/16 10:19:59;;;;;;;8.73;7.37;;;;;;;8.10;100.00;98362.06;4977301;28;20249;-69
2020/12/16 10:22:25;;;;;;;9.47;7.67;;;;;;;8.11;100.00;98354.09;4976863;28;20614;-68
2020/12/16 10:24:51;;;;;;;9.27;7.43;;;;;;;8.19;100.00;98351.91;4977308;28;20243;-69
2020/12/16 10:27:18;;;;;;;8.27;7.23;;;;;;;8.21;100.00;98357.91;4974060;28;20346;-69
2020/12/16 10:29:44;;;;;;;8.73;7.23;;;;;;;8.32;100.00;98357.34;4974370;28;20219;-68
2020/12/16 10:32:10;;;;;;;8.80;7.40;;;;;;;8.49;100.00;98346.66;4975121;28;20214;-69
2020/12/16 10:34:36;;;;;;;9.17;7.00;;;;;;;8.58;100.00;98348.78;4976843;28;20646;-69
2020/12/16 10:37:02;;;;;;;7.17;6.40;;;;;;;8.57;100.00;98349.72;4977028;28;20211;-69
2020/12/16 10:39:29;;;;;;;8.97;6.90;;;;;;;8.61;100.00;98348.59;4976695;28;20681;-69
2020/12/16 10:41:57;;;;;;;8.40;7.10;;;;;;;8.76;100.00;98342.44;4976773;28;20607;-69
2020/12/16 10:44:24;;;;;;;9.63;7.53;;;;;;;8.88;100.00;98336.47;4976712;28;20254;-69
2020/12/16 10:46:54;;;;;;;8.50;6.87;;;;;;;8.97;100.00;98330.63;4977052;28;20222;-69
2020/12/16 10:49:21;;;;;;;6.97;6.00;;;;;;;8.94;100.00;98325.56;4976487;28;20220;-69
2020/12/16 10:51:47;;;;;;;7.57;6.47;;;;;;;8.80;100.00;98342.16;4976753;28;20593;-69
2020/12/16 10:54:13;;;;;;;9.17;7.30;;;;;;;8.67;100.00;98332.44;4976583;28;20282;-69
2020/12/16 10:56:39;;;;;;;9.57;7.17;;;;;;;8.69;100.00;98335.84;4974793;28;20210;-69
2020/12/16 10:59:06;;;;;;;8.43;7.53;;;;;;;8.75;100.00;98327.59;4976659;28;20568;-70
2020/12/16 11:01:36;;;;;;;10.03;7.63;;;;;;;8.77;100.00;98333.59;4976366;28;20221;-70
2020/12/16 11:04:06;;;;;;;9.00;7.07;;;;;;;8.78;100.00;98322.13;4976664;28;20582;-70
2020/12/16 11:06:33;;;;;;;9.30;7.20;;;;;;;8.69;100.00;98325.31;4976080;28;20223;-70
2020/12/16 11:08:58;;;;;;;9.63;7.97;;;;;;;8.58;100.00;98332.97;4976366;28;20215;-70
2020/12/16 11:11:24;;;;;;;10.63;8.20;;;;;;;8.55;100.00;98328.72;4976267;28;20688;-68
2020/12/16 11:13:52;;;;;;;9.63;7.70;;;;;;;8.53;100.00;98327.13;4976214;28;20207;-68
2020/12/16 11:16:18;;;;;;;10.07;8.13;;;;;;;8.54;100.00;98328.81;4976171;28;20210;-70
2020/12/16 11:18:46;;;;;;;11.17;9.37;;;;;;;8.58;100.00;98322.44;4976050;28;20620;-69
2020/12/16 11:21:12;;;;;;;12.17;8.27;;;;;;;8.60;100.00;98318.78;4975882;28;20578;-69
2020/12/16 11:23:37;;;;;;;9.50;7.77;;;;;;;8.57;100.00;98320.75;4974511;28;20234;-69
2020/12/16 11:26:04;;;;;;;12.57;8.90;;;;;;;8.64;100.00;98327.34;4975540;28;20679;-68
2020/12/16 11:28:30;;;;;;;12.03;9.37;;;;;;;8.67;100.00;98322.75;4972307;28;20265;-69